createdAt,value
2022-09-12T00:01:34.111Z,32.1
2022-09-12T00:06:34.314Z,32.1
2022-09-12T00:11:36.158Z,32.1
2022-09-12T00:16:36.343Z,32.1
2022-09-12T00:21:36.764Z,32.1
2022-09-12T00:26:36.951Z,32.1
2022-09-12T00:31:37.233Z,32
2022-09-12T00:36:37.464Z,32
2022-09-12T00:41:37.632Z,32
2022-09-12T00:46:37.823Z,31.9
2022-09-12T00:51:39.686Z,31.9
2022-09-12T00:56:41.709Z,31.9
2022-09-12T01:01:43.634Z,31.9
2022-09-12T01:06:45.637Z,31.9
2022-09-12T01:11:47.424Z,31.9
2022-09-12T01:16:49.431Z,31.8
2022-09-12T01:21:51.286Z,31.8
2022-09-12T01:26:53.076Z,31.8
2022-09-12T01:31:54.874Z,31.8
2022-09-12T01:36:56.766Z,31.8
2022-09-12T01:41:58.598Z,31.8
2022-09-12T01:47:00.385Z,31.8
2022-09-12T01:52:02.224Z,31.7
2022-09-12T01:57:04.268Z,31.7
2022-09-12T02:02:06.083Z,31.7
2022-09-12T02:07:07.922Z,31.6
2022-09-12T02:12:09.703Z,31.6
2022-09-12T02:17:11.512Z,31.6
2022-09-12T02:22:13.349Z,31.6
2022-09-12T02:27:15.158Z,31.6
2022-09-12T02:32:17.208Z,31.6
2022-09-12T02:37:19.248Z,31.6
2022-09-12T02:42:21.061Z,31.6
2022-09-12T02:47:22.832Z,31.5
2022-09-12T02:52:24.874Z,31.5
2022-09-12T02:57:26.695Z,31.5
2022-09-12T03:02:28.518Z,31.5
2022-09-12T03:07:30.376Z,31.4
2022-09-12T03:12:32.181Z,31.4
2022-09-12T03:17:33.994Z,31.4
2022-09-12T03:22:35.814Z,31.4
2022-09-12T03:27:37.597Z,31.4
2022-09-12T03:32:39.371Z,31.4
2022-09-12T03:37:41.185Z,31.4
2022-09-12T03:42:43.002Z,31.4
2022-09-12T03:47:44.808Z,31.3
2022-09-12T03:52:46.614Z,31.3
2022-09-12T03:57:48.379Z,31.3
2022-09-12T04:02:50.183Z,31.3
2022-09-12T04:07:52.007Z,31.3
2022-09-12T04:12:53.824Z,31.2
2022-09-12T04:17:55.587Z,31.2
2022-09-12T04:22:57.385Z,31.2
2022-09-12T04:27:59.419Z,31.2
2022-09-12T04:33:03.880Z,31.2
2022-09-12T04:38:06.804Z,31.2
2022-09-12T04:43:12.462Z,31.2
2022-09-12T04:48:16.107Z,31.2
2022-09-12T04:53:17.132Z,31.2
2022-09-12T04:58:18.929Z,31.1
2022-09-12T05:03:20.674Z,31.1
2022-09-12T05:08:22.475Z,31.1
2022-09-12T05:13:24.264Z,31.1
2022-09-12T05:18:26.047Z,31.1
2022-09-12T05:23:27.855Z,31.1
2022-09-12T05:28:29.593Z,31.1
2022-09-12T05:33:31.605Z,31.1
2022-09-12T05:38:33.408Z,31.1
2022-09-12T05:43:35.170Z,31
2022-09-12T05:48:36.959Z,31
2022-09-12T05:53:38.781Z,31
2022-09-12T05:58:40.556Z,31
2022-09-12T06:03:42.381Z,31
2022-09-12T06:08:44.259Z,31
2022-09-12T06:13:46.178Z,31
2022-09-12T06:18:48.005Z,30.9
2022-09-12T06:23:49.874Z,30.9
2022-09-12T06:28:50.041Z,30.9
2022-09-12T06:33:50.204Z,30.9
2022-09-12T06:38:50.384Z,30.9
2022-09-12T06:43:52.212Z,30.9
2022-09-12T06:48:52.387Z,30.9
2022-09-12T06:53:52.819Z,30.9
2022-09-12T06:58:54.626Z,30.9
2022-09-12T07:03:54.802Z,30.9
2022-09-12T07:08:55.005Z,30.9
2022-09-12T07:13:55.179Z,30.8
2022-09-12T07:18:57.012Z,30.8
2022-09-12T07:23:57.201Z,30.8
2022-09-12T07:29:08.168Z,30.8
2022-09-12T07:34:13.300Z,30.8
2022-09-12T07:39:13.512Z,30.8
2022-09-12T07:44:15.371Z,30.8
2022-09-12T07:49:15.529Z,30.8
2022-09-12T07:54:15.729Z,30.8
2022-09-12T07:59:25.475Z,30.8
2022-09-12T08:04:35.591Z,30.8
2022-09-12T08:09:35.774Z,30.7
2022-09-12T08:14:37.613Z,30.7
2022-09-12T08:19:39.685Z,30.7
2022-09-12T08:24:39.842Z,30.7
2022-09-12T08:29:41.689Z,30.7
2022-09-12T08:34:43.546Z,30.6
2022-09-12T08:39:43.793Z,30.6
2022-09-12T08:44:43.964Z,30.6
2022-09-12T08:49:45.043Z,30.6
2022-09-12T08:54:45.198Z,30.6
2022-09-12T08:59:47.007Z,30.6
2022-09-12T09:04:48.824Z,30.6
2022-09-12T09:09:48.991Z,30.6
2022-09-12T09:14:49.177Z,30.6
2022-09-12T09:19:51.228Z,30.6
2022-09-12T09:24:53.054Z,30.6
2022-09-12T09:29:54.900Z,30.6
2022-09-12T09:34:56.738Z,30.6
2022-09-12T09:39:58.554Z,29.9
2022-09-12T09:45:00.426Z,29.7
2022-09-12T09:50:02.224Z,29.7
2022-09-12T09:55:04.026Z,29.6
2022-09-12T10:00:05.828Z,29.6
2022-09-12T10:05:07.668Z,29.6
2022-09-12T10:10:09.479Z,29.6
2022-09-12T10:15:11.500Z,29.6
2022-09-12T10:20:21.939Z,29.6
2022-09-12T10:25:24.058Z,29.6
2022-09-12T10:30:26.186Z,29.6
2022-09-12T10:35:28.043Z,29.6
2022-09-12T10:40:29.807Z,29.6
2022-09-12T10:45:31.981Z,29.5
2022-09-12T10:50:33.864Z,29.5
2022-09-12T10:55:35.898Z,29.5
2022-09-12T11:00:37.948Z,29.5
2022-09-12T11:05:39.795Z,29.5
2022-09-12T11:10:44.373Z,29.5
2022-09-12T11:15:46.636Z,29.5
2022-09-12T11:20:48.494Z,29.4
2022-09-12T11:25:50.292Z,29.4
2022-09-12T11:30:52.123Z,29.4
2022-09-12T11:35:55.557Z,29.4
2022-09-12T11:40:57.480Z,29.4
2022-09-12T11:45:59.546Z,29.4
2022-09-12T11:51:01.395Z,29.4
2022-09-12T11:56:03.193Z,29.4
2022-09-12T12:01:05.007Z,29.4
2022-09-12T12:06:06.830Z,29.4
2022-09-12T12:11:08.857Z,29.4
2022-09-12T12:16:10.914Z,29.4
2022-09-12T12:21:12.743Z,29.4
2022-09-12T12:26:14.513Z,29.4
2022-09-12T12:31:16.294Z,29.4
2022-09-12T12:36:18.533Z,29.4
2022-09-12T12:41:20.325Z,29.4
2022-09-12T12:46:22.427Z,29.3
2022-09-12T12:51:24.572Z,29.3
2022-09-12T12:56:26.578Z,29.3
2022-09-12T13:01:28.431Z,29.3
2022-09-12T13:06:30.288Z,29.3
2022-09-12T13:11:32.074Z,29.3
2022-09-12T13:16:33.860Z,29.3
2022-09-12T13:21:35.946Z,29.3
2022-09-12T13:26:37.759Z,29.3
2022-09-12T13:31:40.337Z,29.3
2022-09-12T13:36:43.259Z,29.3
2022-09-12T13:41:45.063Z,29.3
2022-09-12T13:46:47.114Z,29.3
2022-09-12T13:51:48.945Z,29.3
2022-09-12T13:56:50.739Z,29.3
2022-09-12T14:01:52.596Z,29.3
2022-09-12T14:06:54.750Z,29.3
2022-09-12T14:11:56.548Z,29.3
2022-09-12T14:16:58.358Z,29.3
2022-09-12T14:22:00.393Z,29.3
2022-09-12T14:27:02.194Z,29.3
2022-09-12T14:32:04.000Z,29.3
2022-09-12T14:37:05.816Z,29.3
2022-09-12T14:42:07.812Z,29.3
2022-09-12T14:47:09.572Z,29.2
2022-09-12T14:52:11.358Z,29.2
2022-09-12T14:57:13.137Z,29.2
2022-09-12T15:02:14.931Z,29.2
2022-09-12T15:07:16.778Z,29.2
2022-09-12T15:12:18.588Z,29.2
2022-09-12T15:17:20.828Z,29.2
2022-09-12T15:22:22.637Z,29.2
2022-09-12T15:27:24.423Z,29.2
2022-09-12T15:32:26.236Z,29.2
2022-09-12T15:37:28.033Z,29.2
2022-09-12T15:42:30.081Z,29.1
2022-09-12T15:47:31.320Z,29.2
2022-09-12T15:52:33.150Z,29.1
2022-09-12T15:57:34.954Z,29.1
2022-09-12T16:02:36.713Z,29.1
2022-09-12T16:07:38.561Z,29.1
2022-09-12T16:12:40.361Z,29.1
2022-09-12T16:17:42.199Z,29.1
2022-09-12T16:22:44.078Z,29.1
2022-09-12T16:27:45.932Z,29.1
2022-09-12T16:32:47.801Z,29.1
2022-09-12T16:37:49.571Z,29.1
2022-09-12T16:42:51.371Z,29.1
2022-09-12T16:47:53.131Z,29.1
2022-09-12T16:52:54.996Z,29.1
2022-09-12T16:57:56.762Z,29.1
2022-09-12T17:02:58.560Z,29.1
2022-09-12T17:08:00.406Z,29.1
2022-09-12T17:13:02.208Z,29.1
2022-09-12T17:18:03.996Z,29.1
2022-09-12T17:23:09.572Z,29.1
2022-09-12T17:28:11.533Z,29.1
2022-09-12T17:33:13.283Z,29.1
2022-09-12T17:38:18.103Z,29.1
2022-09-12T17:43:21.168Z,29.1
2022-09-12T17:48:22.956Z,29.1
2022-09-12T17:53:24.762Z,29.1
2022-09-12T17:58:26.524Z,29.1
2022-09-12T18:03:28.282Z,29.1
2022-09-12T18:08:30.103Z,29
2022-09-12T18:13:31.907Z,29
2022-09-12T18:18:33.673Z,29
2022-09-12T18:23:35.753Z,29
2022-09-12T18:28:37.581Z,29
2022-09-12T18:33:39.370Z,29
2022-09-12T18:38:41.276Z,29
2022-09-12T18:43:43.123Z,29
2022-09-12T18:48:44.984Z,29
2022-09-12T18:53:46.831Z,29
2022-09-12T18:58:48.902Z,29
2022-09-12T19:03:50.686Z,29
2022-09-12T19:08:52.592Z,29
2022-09-12T19:13:54.389Z,28.9
2022-09-12T19:18:56.135Z,29
2022-09-12T19:23:57.901Z,28.9
2022-09-12T19:28:59.689Z,28.3
2022-09-12T19:34:01.463Z,28.2
2022-09-12T19:39:03.337Z,28.2
2022-09-12T19:44:05.139Z,28.1
2022-09-12T19:49:06.874Z,28.1
2022-09-12T19:54:08.640Z,28.1
2022-09-12T19:59:10.362Z,28.1
2022-09-12T20:04:12.096Z,28.1
2022-09-12T20:09:13.949Z,28.7
2022-09-12T20:14:15.776Z,32.2
2022-09-12T20:19:15.983Z,34.6
2022-09-12T20:24:16.261Z,36.3
2022-09-12T20:29:16.610Z,37.9
2022-09-12T20:34:16.999Z,39.3
2022-09-12T20:39:17.422Z,40.4
2022-09-12T20:44:17.874Z,41.3
2022-09-12T20:49:18.400Z,42
2022-09-12T20:54:18.943Z,42.6
2022-09-12T20:59:19.434Z,42.7
2022-09-12T21:04:19.910Z,42.7
2022-09-12T21:09:20.442Z,42.7
2022-09-12T21:14:20.948Z,42.6
2022-09-12T21:19:21.427Z,42.6
2022-09-12T21:24:21.925Z,42.2
2022-09-12T21:29:22.417Z,41.7
2022-09-12T21:34:22.867Z,39.6
2022-09-12T21:39:23.267Z,37.9
2022-09-12T21:44:23.617Z,37.5
2022-09-12T21:49:23.945Z,37.2
2022-09-12T21:54:24.292Z,37.1
2022-09-12T21:59:24.578Z,36.9
2022-09-12T22:04:25.147Z,36.8
2022-09-12T22:09:25.564Z,36.7
2022-09-12T22:14:25.872Z,36.6
2022-09-12T22:19:26.228Z,36.4
2022-09-12T22:24:26.547Z,36.3
2022-09-12T22:29:26.925Z,36.2
2022-09-12T22:34:27.223Z,36.1
2022-09-12T22:39:27.532Z,36
2022-09-12T22:44:27.859Z,35.9
2022-09-12T22:49:28.190Z,35.8
2022-09-12T22:54:28.483Z,35.7
2022-09-12T22:59:28.825Z,35.6
2022-09-12T23:04:29.117Z,35.6
2022-09-12T23:09:33.313Z,35.4
2022-09-12T23:14:35.044Z,35.4
2022-09-12T23:19:35.330Z,35.3
2022-09-12T23:24:35.719Z,35.2
2022-09-12T23:29:36.074Z,35.1
2022-09-12T23:34:36.573Z,35.1
2022-09-12T23:39:36.856Z,35
2022-09-12T23:44:37.137Z,34.9
2022-09-12T23:49:37.416Z,34.9
2022-09-12T23:54:37.665Z,34.8
2022-09-12T23:59:37.937Z,34.7
